sensor_id;sensor_type;location;lat;lon;timestamp;P1;durP1;ratioP1;P2;durP2;ratioP2
37453;SDS011;23315;52.078;4.756;2023-08-12T00:00:40;12.93;;;3.60;;
37453;SDS011;23315;52.078;4.756;2023-08-12T00:03:06;14.15;;;4.38;;
37453;SDS011;23315;52.078;4.756;2023-08-12T00:05:31;11.10;;;3.63;;
37453;SDS011;23315;52.078;4.756;2023-08-12T00:07:56;9.70;;;3.67;;
37453;SDS011;23315;52.078;4.756;2023-08-12T00:10:22;11.60;;;3.28;;
37453;SDS011;23315;52.078;4.756;2023-08-12T00:12:47;13.10;;;4.70;;
37453;SDS011;23315;52.078;4.756;2023-08-12T00:15:13;14.32;;;4.10;;
37453;SDS011;23315;52.078;4.756;2023-08-12T00:17:38;12.93;;;5.10;;
37453;SDS011;23315;52.078;4.756;2023-08-12T00:20:06;13.40;;;4.38;;
37453;SDS011;23315;52.078;4.756;2023-08-12T00:22:33;14.57;;;5.05;;
37453;SDS011;23315;52.078;4.756;2023-08-12T00:24:59;14.27;;;5.03;;
37453;SDS011;23315;52.078;4.756;2023-08-12T00:27:24;9.95;;;4.20;;
37453;SDS011;23315;52.078;4.756;2023-08-12T00:29:50;10.93;;;5.30;;
37453;SDS011;23315;52.078;4.756;2023-08-12T00:32:15;18.42;;;5.25;;
37453;SDS011;23315;52.078;4.756;2023-08-12T00:34:41;11.75;;;4.32;;
37453;SDS011;23315;52.078;4.756;2023-08-12T00:37:06;14.77;;;5.00;;
37453;SDS011;23315;52.078;4.756;2023-08-12T00:39:31;13.68;;;5.35;;
37453;SDS011;23315;52.078;4.756;2023-08-12T00:41:57;15.70;;;5.50;;
37453;SDS011;23315;52.078;4.756;2023-08-12T00:44:22;10.80;;;4.50;;
37453;SDS011;23315;52.078;4.756;2023-08-12T00:46:48;14.50;;;4.88;;
37453;SDS011;23315;52.078;4.756;2023-08-12T00:49:14;11.05;;;4.13;;
37453;SDS011;23315;52.078;4.756;2023-08-12T00:51:40;10.63;;;4.00;;
37453;SDS011;23315;52.078;4.756;2023-08-12T00:54:07;14.68;;;4.47;;
37453;SDS011;23315;52.078;4.756;2023-08-12T00:56:33;10.23;;;4.63;;
37453;SDS011;23315;52.078;4.756;2023-08-12T00:58:59;14.23;;;4.80;;
37453;SDS011;23315;52.078;4.756;2023-08-12T01:01:25;9.55;;;4.05;;
37453;SDS011;23315;52.078;4.756;2023-08-12T01:03:51;12.52;;;4.47;;
37453;SDS011;23315;52.078;4.756;2023-08-12T01:06:17;12.95;;;4.80;;
37453;SDS011;23315;52.078;4.756;2023-08-12T01:08:42;10.07;;;3.88;;
37453;SDS011;23315;52.078;4.756;2023-08-12T01:11:21;11.30;;;4.47;;
37453;SDS011;23315;52.078;4.756;2023-08-12T01:16:24;11.70;;;4.28;;
37453;SDS011;23315;52.078;4.756;2023-08-12T01:18:53;10.23;;;4.22;;
37453;SDS011;23315;52.078;4.756;2023-08-12T01:21:18;10.52;;;4.03;;
37453;SDS011;23315;52.078;4.756;2023-08-12T01:23:46;12.13;;;4.22;;
37453;SDS011;23315;52.078;4.756;2023-08-12T01:26:12;10.32;;;4.40;;
37453;SDS011;23315;52.078;4.756;2023-08-12T01:28:37;9.88;;;4.05;;
37453;SDS011;23315;52.078;4.756;2023-08-12T01:31:11;11.55;;;4.03;;
37453;SDS011;23315;52.078;4.756;2023-08-12T01:34:01;9.25;;;3.75;;
37453;SDS011;23315;52.078;4.756;2023-08-12T01:36:27;9.48;;;4.20;;
37453;SDS011;23315;52.078;4.756;2023-08-12T01:38:54;10.15;;;3.88;;
37453;SDS011;23315;52.078;4.756;2023-08-12T01:41:20;9.48;;;4.32;;
37453;SDS011;23315;52.078;4.756;2023-08-12T01:43:46;8.45;;;4.60;;
37453;SDS011;23315;52.078;4.756;2023-08-12T01:46:12;8.27;;;4.47;;
37453;SDS011;23315;52.078;4.756;2023-08-12T01:48:37;10.68;;;4.07;;
37453;SDS011;23315;52.078;4.756;2023-08-12T01:51:03;9.93;;;4.28;;
37453;SDS011;23315;52.078;4.756;2023-08-12T01:53:29;10.02;;;4.30;;
37453;SDS011;23315;52.078;4.756;2023-08-12T01:55:54;9.43;;;4.13;;
37453;SDS011;23315;52.078;4.756;2023-08-12T01:58:19;12.00;;;5.07;;
37453;SDS011;23315;52.078;4.756;2023-08-12T02:00:45;7.70;;;4.20;;
37453;SDS011;23315;52.078;4.756;2023-08-12T02:03:10;11.45;;;4.80;;
37453;SDS011;23315;52.078;4.756;2023-08-12T02:05:36;13.25;;;5.38;;
37453;SDS011;23315;52.078;4.756;2023-08-12T02:08:04;12.25;;;5.05;;
37453;SDS011;23315;52.078;4.756;2023-08-12T02:10:30;9.45;;;4.05;;
37453;SDS011;23315;52.078;4.756;2023-08-12T02:12:55;9.80;;;3.95;;
37453;SDS011;23315;52.078;4.756;2023-08-12T02:15:21;11.20;;;5.28;;
37453;SDS011;23315;52.078;4.756;2023-08-12T02:17:46;10.73;;;4.95;;
37453;SDS011;23315;52.078;4.756;2023-08-12T02:20:12;13.23;;;5.63;;
37453;SDS011;23315;52.078;4.756;2023-08-12T02:22:37;11.23;;;5.35;;
37453;SDS011;23315;52.078;4.756;2023-08-12T02:25:02;10.75;;;5.45;;
37453;SDS011;23315;52.078;4.756;2023-08-12T02:27:28;10.35;;;5.80;;
37453;SDS011;23315;52.078;4.756;2023-08-12T02:29:53;15.15;;;6.00;;
37453;SDS011;23315;52.078;4.756;2023-08-12T02:32:19;9.20;;;5.70;;
37453;SDS011;23315;52.078;4.756;2023-08-12T02:34:44;12.93;;;5.93;;
37453;SDS011;23315;52.078;4.756;2023-08-12T02:37:09;11.52;;;6.40;;
37453;SDS011;23315;52.078;4.756;2023-08-12T02:39:35;14.43;;;7.03;;
37453;SDS011;23315;52.078;4.756;2023-08-12T02:42:00;12.25;;;6.68;;
37453;SDS011;23315;52.078;4.756;2023-08-12T02:44:26;11.07;;;6.30;;
37453;SDS011;23315;52.078;4.756;2023-08-12T02:46:51;10.68;;;6.53;;
37453;SDS011;23315;52.078;4.756;2023-08-12T02:49:16;14.02;;;6.63;;
37453;SDS011;23315;52.078;4.756;2023-08-12T02:51:42;11.98;;;7.10;;
37453;SDS011;23315;52.078;4.756;2023-08-12T02:54:07;11.75;;;6.50;;
37453;SDS011;23315;52.078;4.756;2023-08-12T02:56:33;14.93;;;7.30;;
37453;SDS011;23315;52.078;4.756;2023-08-12T02:58:58;14.88;;;6.20;;
37453;SDS011;23315;52.078;4.756;2023-08-12T03:01:24;13.43;;;7.88;;
37453;SDS011;23315;52.078;4.756;2023-08-12T03:03:49;10.70;;;6.22;;
37453;SDS011;23315;52.078;4.756;2023-08-12T03:06:15;14.20;;;6.90;;
37453;SDS011;23315;52.078;4.756;2023-08-12T03:08:41;14.20;;;7.28;;
37453;SDS011;23315;52.078;4.756;2023-08-12T03:11:06;11.18;;;7.45;;
37453;SDS011;23315;52.078;4.756;2023-08-12T03:13:31;15.15;;;7.25;;
37453;SDS011;23315;52.078;4.756;2023-08-12T03:15:57;12.00;;;7.35;;
37453;SDS011;23315;52.078;4.756;2023-08-12T03:18:22;17.23;;;7.40;;
37453;SDS011;23315;52.078;4.756;2023-08-12T03:20:48;18.83;;;7.35;;
37453;SDS011;23315;52.078;4.756;2023-08-12T03:23:14;17.77;;;7.38;;
37453;SDS011;23315;52.078;4.756;2023-08-12T03:25:39;16.95;;;7.80;;
37453;SDS011;23315;52.078;4.756;2023-08-12T03:28:05;15.52;;;8.30;;
37453;SDS011;23315;52.078;4.756;2023-08-12T03:30:30;11.85;;;7.18;;
37453;SDS011;23315;52.078;4.756;2023-08-12T03:32:56;16.45;;;6.80;;
37453;SDS011;23315;52.078;4.756;2023-08-12T03:35:22;15.35;;;7.85;;
37453;SDS011;23315;52.078;4.756;2023-08-12T03:37:47;11.40;;;6.13;;
37453;SDS011;23315;52.078;4.756;2023-08-12T03:40:13;12.88;;;8.38;;
37453;SDS011;23315;52.078;4.756;2023-08-12T03:42:38;15.10;;;8.18;;
37453;SDS011;23315;52.078;4.756;2023-08-12T03:45:03;11.73;;;7.75;;
37453;SDS011;23315;52.078;4.756;2023-08-12T03:47:29;16.08;;;8.32;;
37453;SDS011;23315;52.078;4.756;2023-08-12T03:49:55;18.80;;;8.02;;
37453;SDS011;23315;52.078;4.756;2023-08-12T03:52:20;17.58;;;7.72;;
37453;SDS011;23315;52.078;4.756;2023-08-12T03:54:46;15.68;;;8.90;;
37453;SDS011;23315;52.078;4.756;2023-08-12T03:57:11;16.58;;;7.85;;
37453;SDS011;23315;52.078;4.756;2023-08-12T03:59:37;19.77;;;7.45;;
37453;SDS011;23315;52.078;4.756;2023-08-12T04:02:02;11.68;;;7.65;;
37453;SDS011;23315;52.078;4.756;2023-08-12T04:04:29;17.15;;;8.43;;
37453;SDS011;23315;52.078;4.756;2023-08-12T04:06:54;15.85;;;7.82;;
37453;SDS011;23315;52.078;4.756;2023-08-12T04:09:20;15.23;;;8.90;;
37453;SDS011;23315;52.078;4.756;2023-08-12T04:11:45;18.15;;;8.82;;
37453;SDS011;23315;52.078;4.756;2023-08-12T04:14:12;17.40;;;8.48;;
37453;SDS011;23315;52.078;4.756;2023-08-12T04:16:38;14.82;;;8.32;;
37453;SDS011;23315;52.078;4.756;2023-08-12T04:19:04;20.20;;;9.40;;
37453;SDS011;23315;52.078;4.756;2023-08-12T04:21:29;17.05;;;8.40;;
37453;SDS011;23315;52.078;4.756;2023-08-12T04:23:54;16.42;;;8.70;;
37453;SDS011;23315;52.078;4.756;2023-08-12T04:26:20;18.67;;;10.18;;
37453;SDS011;23315;52.078;4.756;2023-08-12T04:28:45;19.15;;;10.93;;
37453;SDS011;23315;52.078;4.756;2023-08-12T04:31:11;18.17;;;10.05;;
37453;SDS011;23315;52.078;4.756;2023-08-12T04:33:36;17.27;;;11.52;;
37453;SDS011;23315;52.078;4.756;2023-08-12T04:36:01;22.55;;;12.15;;
37453;SDS011;23315;52.078;4.756;2023-08-12T04:38:27;21.05;;;11.15;;
37453;SDS011;23315;52.078;4.756;2023-08-12T04:40:53;22.17;;;12.93;;
37453;SDS011;23315;52.078;4.756;2023-08-12T04:43:19;25.63;;;12.30;;
37453;SDS011;23315;52.078;4.756;2023-08-12T04:45:45;21.15;;;12.65;;
37453;SDS011;23315;52.078;4.756;2023-08-12T04:48:11;17.58;;;11.50;;
37453;SDS011;23315;52.078;4.756;2023-08-12T04:50:37;17.50;;;11.32;;
37453;SDS011;23315;52.078;4.756;2023-08-12T04:53:03;25.38;;;12.52;;
37453;SDS011;23315;52.078;4.756;2023-08-12T04:55:29;26.00;;;13.45;;
37453;SDS011;23315;52.078;4.756;2023-08-12T04:57:55;17.27;;;12.27;;
37453;SDS011;23315;52.078;4.756;2023-08-12T05:00:21;16.83;;;12.80;;
37453;SDS011;23315;52.078;4.756;2023-08-12T05:02:46;20.08;;;11.63;;
37453;SDS011;23315;52.078;4.756;2023-08-12T05:05:12;20.92;;;14.68;;
37453;SDS011;23315;52.078;4.756;2023-08-12T05:07:38;25.45;;;14.63;;
37453;SDS011;23315;52.078;4.756;2023-08-12T05:10:03;24.30;;;14.00;;
37453;SDS011;23315;52.078;4.756;2023-08-12T05:12:29;22.77;;;14.38;;
37453;SDS011;23315;52.078;4.756;2023-08-12T05:14:55;27.25;;;16.08;;
37453;SDS011;23315;52.078;4.756;2023-08-12T05:17:20;22.45;;;15.07;;
37453;SDS011;23315;52.078;4.756;2023-08-12T05:19:46;22.10;;;14.25;;
37453;SDS011;23315;52.078;4.756;2023-08-12T05:22:11;25.70;;;14.70;;
37453;SDS011;23315;52.078;4.756;2023-08-12T05:24:36;24.80;;;14.82;;
37453;SDS011;23315;52.078;4.756;2023-08-12T05:27:02;24.40;;;16.38;;
37453;SDS011;23315;52.078;4.756;2023-08-12T05:29:29;25.63;;;16.42;;
37453;SDS011;23315;52.078;4.756;2023-08-12T05:31:54;27.95;;;16.90;;
37453;SDS011;23315;52.078;4.756;2023-08-12T05:34:20;31.17;;;17.40;;
37453;SDS011;23315;52.078;4.756;2023-08-12T05:36:45;26.38;;;16.52;;
37453;SDS011;23315;52.078;4.756;2023-08-12T05:39:10;27.10;;;18.02;;
37453;SDS011;23315;52.078;4.756;2023-08-12T05:41:36;29.48;;;17.05;;
37453;SDS011;23315;52.078;4.756;2023-08-12T05:44:01;27.90;;;18.13;;
37453;SDS011;23315;52.078;4.756;2023-08-12T05:46:27;33.75;;;18.48;;
37453;SDS011;23315;52.078;4.756;2023-08-12T05:48:52;27.83;;;18.17;;
37453;SDS011;23315;52.078;4.756;2023-08-12T05:51:18;30.10;;;18.83;;
37453;SDS011;23315;52.078;4.756;2023-08-12T05:53:43;26.20;;;16.08;;
37453;SDS011;23315;52.078;4.756;2023-08-12T05:56:08;31.08;;;17.52;;
37453;SDS011;23315;52.078;4.756;2023-08-12T05:58:34;25.48;;;16.38;;
37453;SDS011;23315;52.078;4.756;2023-08-12T06:00:59;31.33;;;21.20;;
37453;SDS011;23315;52.078;4.756;2023-08-12T06:03:25;31.73;;;21.30;;
37453;SDS011;23315;52.078;4.756;2023-08-12T06:05:50;38.78;;;23.05;;
37453;SDS011;23315;52.078;4.756;2023-08-12T06:08:16;35.70;;;22.42;;
37453;SDS011;23315;52.078;4.756;2023-08-12T06:10:41;41.45;;;24.20;;
37453;SDS011;23315;52.078;4.756;2023-08-12T06:13:06;35.92;;;23.70;;
37453;SDS011;23315;52.078;4.756;2023-08-12T06:15:32;34.53;;;22.13;;
37453;SDS011;23315;52.078;4.756;2023-08-12T06:18:01;38.20;;;24.67;;
37453;SDS011;23315;52.078;4.756;2023-08-12T06:20:27;36.72;;;25.65;;
37453;SDS011;23315;52.078;4.756;2023-08-12T06:22:52;34.92;;;22.90;;
37453;SDS011;23315;52.078;4.756;2023-08-12T06:25:18;37.63;;;24.33;;
37453;SDS011;23315;52.078;4.756;2023-08-12T06:27:44;36.88;;;22.92;;
37453;SDS011;23315;52.078;4.756;2023-08-12T06:30:10;33.65;;;22.67;;
37453;SDS011;23315;52.078;4.756;2023-08-12T06:32:37;37.58;;;23.33;;
37453;SDS011;23315;52.078;4.756;2023-08-12T06:35:02;36.90;;;23.85;;
37453;SDS011;23315;52.078;4.756;2023-08-12T06:37:28;37.72;;;25.30;;
37453;SDS011;23315;52.078;4.756;2023-08-12T06:39:53;36.75;;;23.75;;
37453;SDS011;23315;52.078;4.756;2023-08-12T06:42:20;39.78;;;24.52;;
37453;SDS011;23315;52.078;4.756;2023-08-12T06:44:45;36.03;;;23.98;;
37453;SDS011;23315;52.078;4.756;2023-08-12T06:47:11;36.30;;;24.30;;
37453;SDS011;23315;52.078;4.756;2023-08-12T06:49:36;38.85;;;23.42;;
37453;SDS011;23315;52.078;4.756;2023-08-12T06:52:02;38.92;;;23.00;;
37453;SDS011;23315;52.078;4.756;2023-08-12T06:54:27;40.20;;;23.90;;
37453;SDS011;23315;52.078;4.756;2023-08-12T06:56:52;34.22;;;24.02;;
37453;SDS011;23315;52.078;4.756;2023-08-12T06:59:18;37.95;;;20.55;;
37453;SDS011;23315;52.078;4.756;2023-08-12T07:01:43;30.50;;;20.85;;
37453;SDS011;23315;52.078;4.756;2023-08-12T07:04:09;34.47;;;23.45;;
37453;SDS011;23315;52.078;4.756;2023-08-12T07:06:34;33.00;;;20.98;;
37453;SDS011;23315;52.078;4.756;2023-08-12T07:09:00;31.13;;;20.73;;
37453;SDS011;23315;52.078;4.756;2023-08-12T07:11:25;32.28;;;19.88;;
37453;SDS011;23315;52.078;4.756;2023-08-12T07:13:50;39.55;;;26.20;;
37453;SDS011;23315;52.078;4.756;2023-08-12T07:16:16;30.58;;;18.50;;
37453;SDS011;23315;52.078;4.756;2023-08-12T07:18:41;25.20;;;15.20;;
37453;SDS011;23315;52.078;4.756;2023-08-12T07:21:07;18.52;;;11.77;;
37453;SDS011;23315;52.078;4.756;2023-08-12T07:23:32;18.25;;;9.52;;
37453;SDS011;23315;52.078;4.756;2023-08-12T07:25:58;19.65;;;9.65;;
37453;SDS011;23315;52.078;4.756;2023-08-12T07:28:23;13.40;;;6.75;;
37453;SDS011;23315;52.078;4.756;2023-08-12T07:30:49;10.48;;;4.72;;
37453;SDS011;23315;52.078;4.756;2023-08-12T07:33:15;6.68;;;1.92;;
37453;SDS011;23315;52.078;4.756;2023-08-12T07:35:40;7.07;;;2.00;;
37453;SDS011;23315;52.078;4.756;2023-08-12T07:38:06;7.90;;;1.95;;
37453;SDS011;23315;52.078;4.756;2023-08-12T07:40:31;7.13;;;1.70;;
37453;SDS011;23315;52.078;4.756;2023-08-12T07:42:57;13.15;;;2.67;;
37453;SDS011;23315;52.078;4.756;2023-08-12T07:45:22;6.25;;;2.53;;
37453;SDS011;23315;52.078;4.756;2023-08-12T07:47:51;9.23;;;2.25;;
37453;SDS011;23315;52.078;4.756;2023-08-12T07:50:16;6.82;;;1.60;;
37453;SDS011;23315;52.078;4.756;2023-08-12T07:52:42;5.60;;;1.70;;
37453;SDS011;23315;52.078;4.756;2023-08-12T07:55:07;4.93;;;2.08;;
37453;SDS011;23315;52.078;4.756;2023-08-12T07:57:33;5.53;;;1.42;;
37453;SDS011;23315;52.078;4.756;2023-08-12T07:59:58;7.43;;;2.05;;
37453;SDS011;23315;52.078;4.756;2023-08-12T08:02:24;7.22;;;1.77;;
37453;SDS011;23315;52.078;4.756;2023-08-12T08:04:49;7.20;;;1.85;;
37453;SDS011;23315;52.078;4.756;2023-08-12T08:07:15;7.60;;;1.65;;
37453;SDS011;23315;52.078;4.756;2023-08-12T08:09:41;7.25;;;1.98;;
37453;SDS011;23315;52.078;4.756;2023-08-12T08:12:09;9.75;;;1.83;;
37453;SDS011;23315;52.078;4.756;2023-08-12T08:14:35;6.70;;;2.17;;
37453;SDS011;23315;52.078;4.756;2023-08-12T08:17:01;7.20;;;1.67;;
37453;SDS011;23315;52.078;4.756;2023-08-12T08:19:26;8.85;;;2.13;;
37453;SDS011;23315;52.078;4.756;2023-08-12T08:21:52;6.05;;;2.08;;
37453;SDS011;23315;52.078;4.756;2023-08-12T08:24:17;12.38;;;2.50;;
37453;SDS011;23315;52.078;4.756;2023-08-12T08:26:43;7.05;;;2.17;;
37453;SDS011;23315;52.078;4.756;2023-08-12T08:29:10;8.95;;;1.90;;
37453;SDS011;23315;52.078;4.756;2023-08-12T08:31:36;9.15;;;2.67;;
37453;SDS011;23315;52.078;4.756;2023-08-12T08:34:01;7.15;;;2.53;;
37453;SDS011;23315;52.078;4.756;2023-08-12T08:36:27;9.30;;;2.20;;
37453;SDS011;23315;52.078;4.756;2023-08-12T08:38:52;13.85;;;4.78;;
37453;SDS011;23315;52.078;4.756;2023-08-12T08:41:18;9.00;;;3.15;;
37453;SDS011;23315;52.078;4.756;2023-08-12T08:43:44;11.00;;;2.97;;
37453;SDS011;23315;52.078;4.756;2023-08-12T08:46:14;12.55;;;3.50;;
37453;SDS011;23315;52.078;4.756;2023-08-12T08:48:41;10.63;;;2.97;;
37453;SDS011;23315;52.078;4.756;2023-08-12T08:51:08;11.23;;;3.17;;
37453;SDS011;23315;52.078;4.756;2023-08-12T08:53:37;15.70;;;3.22;;
37453;SDS011;23315;52.078;4.756;2023-08-12T08:56:04;14.55;;;3.03;;
37453;SDS011;23315;52.078;4.756;2023-08-12T08:58:30;8.35;;;2.50;;
37453;SDS011;23315;52.078;4.756;2023-08-12T09:00:56;9.63;;;2.72;;
37453;SDS011;23315;52.078;4.756;2023-08-12T09:03:22;13.02;;;2.65;;
37453;SDS011;23315;52.078;4.756;2023-08-12T09:05:47;10.60;;;4.03;;
37453;SDS011;23315;52.078;4.756;2023-08-12T09:08:12;10.50;;;3.20;;
37453;SDS011;23315;52.078;4.756;2023-08-12T09:10:39;13.82;;;2.67;;
37453;SDS011;23315;52.078;4.756;2023-08-12T09:13:07;7.20;;;2.67;;
37453;SDS011;23315;52.078;4.756;2023-08-12T09:15:34;13.90;;;3.30;;
37453;SDS011;23315;52.078;4.756;2023-08-12T09:17:59;13.07;;;3.28;;
37453;SDS011;23315;52.078;4.756;2023-08-12T09:20:25;12.55;;;3.17;;
37453;SDS011;23315;52.078;4.756;2023-08-12T09:22:57;9.98;;;3.95;;
37453;SDS011;23315;52.078;4.756;2023-08-12T09:25:23;11.65;;;3.45;;
37453;SDS011;23315;52.078;4.756;2023-08-12T09:27:49;6.63;;;2.17;;
37453;SDS011;23315;52.078;4.756;2023-08-12T09:30:14;8.30;;;2.63;;
37453;SDS011;23315;52.078;4.756;2023-08-12T09:32:40;9.02;;;3.15;;
37453;SDS011;23315;52.078;4.756;2023-08-12T09:35:09;6.03;;;2.53;;
37453;SDS011;23315;52.078;4.756;2023-08-12T09:37:41;9.07;;;2.72;;
37453;SDS011;23315;52.078;4.756;2023-08-12T09:40:06;13.93;;;2.80;;
37453;SDS011;23315;52.078;4.756;2023-08-12T09:42:33;10.40;;;2.15;;
37453;SDS011;23315;52.078;4.756;2023-08-12T09:44:59;7.43;;;1.90;;
37453;SDS011;23315;52.078;4.756;2023-08-12T09:47:27;7.57;;;2.25;;
37453;SDS011;23315;52.078;4.756;2023-08-12T09:49:52;11.88;;;2.95;;
37453;SDS011;23315;52.078;4.756;2023-08-12T09:52:18;13.80;;;2.75;;
37453;SDS011;23315;52.078;4.756;2023-08-12T09:54:43;8.07;;;1.80;;
37453;SDS011;23315;52.078;4.756;2023-08-12T09:57:09;10.60;;;3.15;;
37453;SDS011;23315;52.078;4.756;2023-08-12T09:59:36;11.02;;;2.28;;
37453;SDS011;23315;52.078;4.756;2023-08-12T10:02:03;10.52;;;2.80;;
37453;SDS011;23315;52.078;4.756;2023-08-12T10:04:35;11.50;;;3.38;;
37453;SDS011;23315;52.078;4.756;2023-08-12T10:07:05;9.40;;;2.40;;
37453;SDS011;23315;52.078;4.756;2023-08-12T10:09:31;12.63;;;3.90;;
37453;SDS011;23315;52.078;4.756;2023-08-12T10:11:57;8.30;;;2.50;;
37453;SDS011;23315;52.078;4.756;2023-08-12T10:14:24;7.80;;;2.78;;
37453;SDS011;23315;52.078;4.756;2023-08-12T10:16:49;7.55;;;2.38;;
37453;SDS011;23315;52.078;4.756;2023-08-12T10:19:15;11.25;;;2.78;;
37453;SDS011;23315;52.078;4.756;2023-08-12T10:21:42;11.38;;;3.08;;
37453;SDS011;23315;52.078;4.756;2023-08-12T10:24:09;11.85;;;3.92;;
37453;SDS011;23315;52.078;4.756;2023-08-12T10:26:36;11.38;;;4.07;;
37453;SDS011;23315;52.078;4.756;2023-08-12T10:29:02;12.68;;;2.92;;
37453;SDS011;23315;52.078;4.756;2023-08-12T10:31:28;9.77;;;2.90;;
37453;SDS011;23315;52.078;4.756;2023-08-12T10:33:54;10.43;;;2.80;;
37453;SDS011;23315;52.078;4.756;2023-08-12T10:36:21;13.98;;;2.85;;
37453;SDS011;23315;52.078;4.756;2023-08-12T10:38:47;10.10;;;2.72;;
37453;SDS011;23315;52.078;4.756;2023-08-12T10:41:20;14.05;;;2.97;;
37453;SDS011;23315;52.078;4.756;2023-08-12T10:46:21;9.95;;;2.90;;
37453;SDS011;23315;52.078;4.756;2023-08-12T10:48:57;10.60;;;2.58;;
37453;SDS011;23315;52.078;4.756;2023-08-12T10:54:30;10.63;;;3.50;;
37453;SDS011;23315;52.078;4.756;2023-08-12T11:04:56;9.32;;;3.17;;
37453;SDS011;23315;52.078;4.756;2023-08-12T11:07:47;19.70;;;3.90;;
37453;SDS011;23315;52.078;4.756;2023-08-12T11:10:15;12.13;;;3.08;;
37453;SDS011;23315;52.078;4.756;2023-08-12T11:12:47;11.50;;;2.92;;
37453;SDS011;23315;52.078;4.756;2023-08-12T11:15:14;11.80;;;2.97;;
37453;SDS011;23315;52.078;4.756;2023-08-12T11:17:40;12.30;;;3.25;;
37453;SDS011;23315;52.078;4.756;2023-08-12T11:20:07;12.02;;;2.78;;
37453;SDS011;23315;52.078;4.756;2023-08-12T11:22:39;10.45;;;3.42;;
37453;SDS011;23315;52.078;4.756;2023-08-12T11:25:07;15.95;;;3.40;;
37453;SDS011;23315;52.078;4.756;2023-08-12T11:27:38;14.20;;;4.10;;
37453;SDS011;23315;52.078;4.756;2023-08-12T11:30:04;13.57;;;3.28;;
37453;SDS011;23315;52.078;4.756;2023-08-12T11:32:30;14.68;;;3.45;;
37453;SDS011;23315;52.078;4.756;2023-08-12T11:34:56;12.20;;;3.50;;
37453;SDS011;23315;52.078;4.756;2023-08-12T11:37:21;11.90;;;2.80;;
37453;SDS011;23315;52.078;4.756;2023-08-12T11:39:46;15.48;;;3.83;;
37453;SDS011;23315;52.078;4.756;2023-08-12T11:42:12;14.02;;;2.75;;
37453;SDS011;23315;52.078;4.756;2023-08-12T11:44:39;9.43;;;2.88;;
37453;SDS011;23315;52.078;4.756;2023-08-12T11:47:06;13.63;;;3.10;;
37453;SDS011;23315;52.078;4.756;2023-08-12T11:49:31;14.60;;;3.00;;
37453;SDS011;23315;52.078;4.756;2023-08-12T11:51:57;10.90;;;3.30;;
37453;SDS011;23315;52.078;4.756;2023-08-12T11:54:22;11.18;;;3.63;;
37453;SDS011;23315;52.078;4.756;2023-08-12T11:56:48;14.10;;;4.32;;
37453;SDS011;23315;52.078;4.756;2023-08-12T11:59:13;16.15;;;3.83;;
37453;SDS011;23315;52.078;4.756;2023-08-12T12:01:39;10.15;;;3.13;;
37453;SDS011;23315;52.078;4.756;2023-08-12T12:04:04;16.55;;;3.75;;
37453;SDS011;23315;52.078;4.756;2023-08-12T12:06:36;13.25;;;3.90;;
37453;SDS011;23315;52.078;4.756;2023-08-12T12:09:05;14.20;;;4.13;;
37453;SDS011;23315;52.078;4.756;2023-08-12T12:11:34;14.65;;;3.05;;
37453;SDS011;23315;52.078;4.756;2023-08-12T12:14:03;13.40;;;3.72;;
37453;SDS011;23315;52.078;4.756;2023-08-12T12:16:45;15.65;;;3.72;;
37453;SDS011;23315;52.078;4.756;2023-08-12T12:21:47;14.85;;;4.18;;
37453;SDS011;23315;52.078;4.756;2023-08-12T12:24:14;11.95;;;4.03;;
37453;SDS011;23315;52.078;4.756;2023-08-12T12:26:40;13.15;;;4.18;;
37453;SDS011;23315;52.078;4.756;2023-08-12T12:29:06;9.32;;;2.80;;
37453;SDS011;23315;52.078;4.756;2023-08-12T12:31:36;13.88;;;3.65;;
37453;SDS011;23315;52.078;4.756;2023-08-12T12:34:01;12.40;;;3.42;;
37453;SDS011;23315;52.078;4.756;2023-08-12T12:36:29;16.85;;;4.20;;
37453;SDS011;23315;52.078;4.756;2023-08-12T12:38:54;10.98;;;3.13;;
37453;SDS011;23315;52.078;4.756;2023-08-12T12:41:20;8.57;;;2.78;;
37453;SDS011;23315;52.078;4.756;2023-08-12T12:43:45;14.15;;;3.08;;
37453;SDS011;23315;52.078;4.756;2023-08-12T12:46:11;16.13;;;3.47;;
37453;SDS011;23315;52.078;4.756;2023-08-12T12:48:36;11.68;;;3.20;;
37453;SDS011;23315;52.078;4.756;2023-08-12T12:51:01;14.82;;;4.22;;
37453;SDS011;23315;52.078;4.756;2023-08-12T12:53:27;11.48;;;3.28;;
37453;SDS011;23315;52.078;4.756;2023-08-12T12:55:52;12.77;;;3.42;;
37453;SDS011;23315;52.078;4.756;2023-08-12T12:58:18;11.90;;;3.50;;
37453;SDS011;23315;52.078;4.756;2023-08-12T13:00:43;13.05;;;3.22;;
37453;SDS011;23315;52.078;4.756;2023-08-12T13:03:09;7.35;;;2.72;;
37453;SDS011;23315;52.078;4.756;2023-08-12T13:05:34;12.38;;;3.47;;
37453;SDS011;23315;52.078;4.756;2023-08-12T13:07:59;15.35;;;3.53;;
37453;SDS011;23315;52.078;4.756;2023-08-12T13:10:25;14.18;;;3.60;;
37453;SDS011;23315;52.078;4.756;2023-08-12T13:12:50;13.32;;;3.05;;
37453;SDS011;23315;52.078;4.756;2023-08-12T13:15:16;14.45;;;4.13;;
37453;SDS011;23315;52.078;4.756;2023-08-12T13:17:41;10.57;;;3.92;;
37453;SDS011;23315;52.078;4.756;2023-08-12T13:20:07;15.80;;;4.07;;
37453;SDS011;23315;52.078;4.756;2023-08-12T13:22:34;14.60;;;3.60;;
37453;SDS011;23315;52.078;4.756;2023-08-12T13:24:59;16.35;;;4.03;;
37453;SDS011;23315;52.078;4.756;2023-08-12T13:27:24;13.93;;;4.22;;
37453;SDS011;23315;52.078;4.756;2023-08-12T13:29:50;11.55;;;3.47;;
37453;SDS011;23315;52.078;4.756;2023-08-12T13:32:15;10.82;;;3.30;;
37453;SDS011;23315;52.078;4.756;2023-08-12T13:34:41;13.57;;;4.30;;
37453;SDS011;23315;52.078;4.756;2023-08-12T13:37:08;13.10;;;4.07;;
37453;SDS011;23315;52.078;4.756;2023-08-12T13:39:34;12.27;;;3.95;;
37453;SDS011;23315;52.078;4.756;2023-08-12T13:41:59;13.88;;;3.70;;
37453;SDS011;23315;52.078;4.756;2023-08-12T13:44:24;15.18;;;4.05;;
37453;SDS011;23315;52.078;4.756;2023-08-12T13:46:50;16.73;;;4.32;;
37453;SDS011;23315;52.078;4.756;2023-08-12T13:49:15;16.98;;;3.83;;
37453;SDS011;23315;52.078;4.756;2023-08-12T13:51:41;15.05;;;4.05;;
37453;SDS011;23315;52.078;4.756;2023-08-12T13:54:06;15.63;;;3.47;;
37453;SDS011;23315;52.078;4.756;2023-08-12T13:56:32;18.77;;;4.30;;
37453;SDS011;23315;52.078;4.756;2023-08-12T13:58:57;16.42;;;4.40;;
37453;SDS011;23315;52.078;4.756;2023-08-12T14:01:22;10.27;;;3.42;;
37453;SDS011;23315;52.078;4.756;2023-08-12T14:03:48;14.63;;;4.65;;
37453;SDS011;23315;52.078;4.756;2023-08-12T14:06:13;13.32;;;4.50;;
37453;SDS011;23315;52.078;4.756;2023-08-12T14:08:38;15.80;;;4.45;;
37453;SDS011;23315;52.078;4.756;2023-08-12T14:11:04;17.17;;;4.60;;
37453;SDS011;23315;52.078;4.756;2023-08-12T14:13:29;12.93;;;3.83;;
37453;SDS011;23315;52.078;4.756;2023-08-12T14:15:55;12.68;;;3.65;;
37453;SDS011;23315;52.078;4.756;2023-08-12T14:18:20;15.50;;;4.25;;
37453;SDS011;23315;52.078;4.756;2023-08-12T14:20:46;17.85;;;4.00;;
37453;SDS011;23315;52.078;4.756;2023-08-12T14:23:11;13.55;;;4.15;;
37453;SDS011;23315;52.078;4.756;2023-08-12T14:25:37;14.18;;;3.67;;
37453;SDS011;23315;52.078;4.756;2023-08-12T14:28:03;18.35;;;4.75;;
37453;SDS011;23315;52.078;4.756;2023-08-12T14:30:29;16.65;;;4.47;;
37453;SDS011;23315;52.078;4.756;2023-08-12T14:32:54;12.85;;;4.03;;
37453;SDS011;23315;52.078;4.756;2023-08-12T14:35:20;9.60;;;3.42;;
37453;SDS011;23315;52.078;4.756;2023-08-12T14:37:45;17.10;;;3.92;;
37453;SDS011;23315;52.078;4.756;2023-08-12T14:40:11;12.68;;;3.88;;
37453;SDS011;23315;52.078;4.756;2023-08-12T14:42:36;12.60;;;3.47;;
37453;SDS011;23315;52.078;4.756;2023-08-12T14:45:02;16.42;;;3.50;;